ADDS METAR Data INFO
IDs: Format: Raw Decoded Include TAF

Data at: 0213 UTC 17 Aug 2018

PAKW 170153Z AUTO 22005KT 10SM CLR 17/08 A3015 RMK AO2 SLP208 T01670078 TSNO
PAKW 170053Z AUTO 22006KT 10SM FEW100 17/08 A3015 RMK AO2 SLP207 T01670083 TSNO
PAKW 162353Z AUTO 22007KT 10SM CLR 17/09 A3014 RMK AO2 SLP207 T01720094 10194 20133 51005 TSNO
PAKW 162253Z AUTO VRB04KT 10SM OVC120 18/09 A3014 RMK AO2 SLP206 T01830094 TSNO
PAKW 162153Z AUTO 21008KT 10SM CLR 18/10 A3013 RMK AO2 SLP204 T01830100 TSNO
PAKW 162053Z AUTO 22008KT 10SM FEW047 18/10 A3013 RMK AO2 SLP202 T01830100 51006 TSNO
PAKW 161953Z AUTO 19006KT 10SM CLR 16/11 A3013 RMK SLP202 T01610106 TSNO VIA AUTODIAL
PAKW 161853Z AUTO 22005KT 10SM CLR 15/11 A3012 RMK AO2 SLP200 T01500111 TSNO
PAKW 161753Z AUTO 17004KT 10SM FEW011 13/12 A3011 RMK AO2 SLP196 T01330117 10133 20072 51004 TSNO
PAKW 161724Z AUTO 00000KT 10SM FEW012 13/12 A3011 RMK AO2 T01330122 TSNO
PAKW 161653Z AUTO 00000KT 10SM BKN012 12/12 A3011 RMK AO2 SLP196 T01220122 TSNO
PAKW 161644Z AUTO 00000KT 10SM BKN012 12/12 A3011 RMK AO2 T01170117 TSNO
PAKW 161631Z AUTO 00000KT 10SM FEW002 SCT012 11/11 A3011 RMK AO2 T01110111 TSNO
PAKW 161612Z AUTO 00000KT 10SM SCT002 BKN012 11/11 A3011 RMK AO2 T01060106 TSNO
PAKW 161601Z AUTO 00000KT 10SM BKN001 BKN011 10/10 A3011 RMK AO2 T01000100 TSNO
PAKW 161553Z AUTO 00000KT 10SM SCT001 BKN010 10/10 A3011 RMK AO2 SLP195 T01000100 TSNO
PAKW 161536Z AUTO 00000KT 10SM SCT001 OVC010 10/10 A3010 RMK AO2 T01000100 TSNO
PAKW 161501Z AUTO 00000KT 3SM BR OVC009 09/09 A3010 RMK AO2 T00890089 TSNO
PAKW 161453Z AUTO 00000KT 1/2SM FG VV009 09/09 A3010 RMK AO2 SLP192 T00890089 53004 TSNO
PAKW 161441Z AUTO 00000KT 1/4SM FG BKN005 OVC010 08/08 A3010 RMK AO2 T00830083 TSNO
PAKW 161419Z AUTO 00000KT 1/4SM FG BKN003 OVC011 08/08 A3009 RMK AO2 T00780078 TSNO
PAKW 161414Z AUTO 05003KT 1 1/4SM BR BKN005 BKN011 07/07 A3009 RMK AO2 T00720072 TSNO
PAKW 161411Z AUTO 05003KT 1SM BR SCT005 BKN011 07/07 A3009 RMK AO2 T00720072 TSNO
PAKW 161353Z AUTO 00000KT 1/2SM FG VV005 08/08 A3009 RMK AO2 SLP188 T00830078 TSNO
PAKW 161339Z AUTO 00000KT 3/4SM BR VV004 08/08 A3008 RMK AO2 T00780078 TSNO
PAKW 161333Z AUTO 00000KT 1 3/4SM BR FEW001 OVC005 08/07 A3009 RMK AO2 VIS 1V3 T00780072 TSNO
PAKW 161325Z AUTO 00000KT 1 1/2SM BR BKN003 08/08 A3009 RMK AO2 VIS 1V3 T00780078 TSNO
PAKW 161314Z AUTO 05003KT 1SM BR BKN004 BKN010 07/07 A3008 RMK AO2 T00720072 TSNO
PAKW 161307Z AUTO 00000KT 3/4SM BR SCT004 BKN010 08/08 A3008 RMK AO2 T00780078 TSNO
PAKW 161304Z AUTO 00000KT 1 1/4SM BR SCT004 SCT010 08/08 A3008 RMK AO2 T00780078 TSNO
PAKW 161300Z AUTO 00000KT 2SM BR FEW004 SCT010 08/08 A3008 RMK AO2 T00780078 TSNO
PAKW 161253Z AUTO 00000KT 1 1/4SM BR FEW004 BKN010 08/08 A3008 RMK AO2 VIS 3/4V5 SLP187 T00830078 TSNO
PAKW 161248Z AUTO 00000KT 1 3/4SM BR FEW004 BKN010 08/08 A3008 RMK AO2 VIS 3/4V5 TSNO
PAKW 161153Z AUTO 00000KT 10SM BKN010 09/08 A3009 RMK AO2 SLP188 T00890083 10111 20078 53001 TSNO
PAKW 161053Z AUTO 00000KT 9SM BKN010 09/08 A3008 RMK AO2 SLP186 T00890083 TSNO
PAKW 161043Z AUTO 00000KT 4SM BR SCT010 09/08 A3008 RMK AO2 T00890083 TSNO
PAKW 160953Z AUTO 00000KT 10SM CLR 08/08 A3008 RMK AO2 SLP186 T00780078 TSNO
PAKW 160653Z AUTO 20003KT 10SM CLR 10/09 A3007 RMK AO2 SLP182 T01000094 TSNO
PAKW 160553Z AUTO 00000KT 10SM CLR 11/10 A3007 RMK AO2 SLP180 T01110100 10178 20106 50001 TSNO
PAKW 160453Z AUTO 21003KT 10SM CLR 12/10 A3007 RMK AO2 SLP182 T01170100 TSNO
PAKW 160353Z AUTO VRB03KT 10SM BKN042 14/10 A3007 RMK AO2 SLP181 T01390100 TSNO
PAKW 160253Z AUTO VRB03KT 10SM OVC042 15/09 A3006 RMK AO2 SLP180 T01500094 56008 TSNO
PAKW 160153Z AUTO VRB05KT 10SM OVC043 16/09 A3007 RMK AO2 SLP182 T01610094 TSNO
PAKW 160053Z AUTO VRB06KT 10SM SCT042 18/09 A3007 RMK AO2 SLP183 T01780089 TSNO
PAKW 152353Z AUTO VRB05KT 10SM OVC046 17/09 A3009 RMK AO2 SLP188 T01720094 10194 20150 58003 TSNO
PAKW 152253Z AUTO VRB06KT 10SM OVC047 17/09 A3009 RMK AO2 SLP190 T01720089 TSNO
PAKW 152153Z AUTO VRB06KT 10SM OVC048 17/08 A3010 RMK AO2 SLP192 T01670083 TSNO
PAKW 152053Z AUTO VRB06KT 10SM BKN048 18/11 A3010 RMK AO2 SLP192 T01780106 56001 TSNO
PAKW 151953Z AUTO VRB04KT 10SM OVC046 17/11 A3010 RMK AO2 SLP192 T01720106 TSNO
PAKW 151853Z AUTO VRB03KT 10SM BKN045 16/11 A3010 RMK AO2 SLP192 T01610111 TSNO
PAKW 151753Z AUTO 00000KT 10SM OVC046 16/11 A3010 RMK AO2 SLP193 T01560111 10156 20078 51003 TSNO
PAKW 151653Z AUTO 00000KT 10SM SCT048 13/12 A3010 RMK SLP192 T01330122 TSNO VIA AUTODIAL
PAKW 151553Z AUTO 00000KT 10SM OVC046 11/11 A3010 RMK AO2 SLP191 T01110111 TSNO
PAKW 151453Z AUTO 00000KT 9SM OVC044 11/11 A3009 RMK AO2 SLP190 T01060106 51005 TSNO